createdAt,value
2022-08-30T00:03:09.024Z,9.3
2022-08-30T00:08:08.684Z,9.3
2022-08-30T00:13:18.927Z,9.4
2022-08-30T00:18:18.961Z,9.5
2022-08-30T00:24:08.650Z,9.5
2022-08-30T00:29:08.667Z,9.6
2022-08-30T00:34:08.694Z,9.6
2022-08-30T00:39:18.933Z,9.8
2022-08-30T00:44:18.961Z,9.7
2022-08-30T00:50:08.697Z,9.8
2022-08-30T00:55:18.933Z,9.8
2022-08-30T01:01:08.717Z,9.9
2022-08-30T01:06:18.938Z,9.9
2022-08-30T01:11:19.043Z,10
2022-08-30T01:17:08.646Z,10.2
2022-08-30T01:22:08.670Z,10.1
2022-08-30T01:27:18.942Z,10.2
2022-08-30T01:32:21.168Z,10.2
2022-08-30T01:38:08.681Z,10.3
2022-08-30T01:43:18.943Z,10.2
2022-08-30T01:48:18.934Z,10.2
2022-08-30T01:53:18.958Z,10.3
2022-08-30T01:59:08.656Z,10.3
2022-08-30T02:04:08.727Z,10.2
2022-08-30T02:09:08.686Z,10.2
2022-08-30T02:14:08.681Z,10.2
2022-08-30T02:19:19.172Z,10.1
2022-08-30T02:24:18.959Z,10.1
2022-08-30T02:29:18.955Z,10.1
2022-08-30T02:35:08.723Z,10.1
2022-08-30T02:40:19.004Z,10.3
2022-08-30T02:46:08.745Z,10.3
2022-08-30T02:51:18.966Z,10.3
2022-08-30T02:56:18.978Z,10.3
2022-08-30T03:01:19.077Z,10.3
2022-08-30T03:07:08.686Z,10.3
2022-08-30T03:12:08.693Z,10.4
2022-08-30T03:17:12.957Z,10.4
2022-08-30T03:22:18.973Z,10.4
2022-08-30T03:27:18.986Z,10.4
2022-08-30T03:33:08.768Z,10.5
2022-08-30T03:38:18.998Z,10.5
2022-08-30T03:44:08.786Z,10.5
2022-08-30T03:49:18.980Z,10.5
2022-08-30T03:54:19.014Z,10.6
2022-08-30T04:00:08.703Z,10.6
2022-08-30T04:05:18.996Z,10.6
2022-08-30T04:10:19.005Z,10.7
2022-08-30T04:15:19.010Z,10.7
2022-08-30T04:21:13.515Z,10.9
2022-08-30T04:26:08.728Z,10.8
2022-08-30T04:31:08.822Z,10.8
2022-08-30T04:36:18.984Z,10.8
2022-08-30T04:41:19.010Z,10.7
2022-08-30T04:47:08.704Z,10.7
2022-08-30T04:52:08.728Z,10.7
2022-08-30T04:57:19.024Z,10.7
2022-08-30T05:03:08.839Z,10.8
2022-08-30T05:08:23.235Z,10.7
2022-08-30T05:13:19.034Z,10.8
2022-08-30T05:19:08.705Z,10.8
2022-08-30T05:24:08.728Z,10.9
2022-08-30T05:29:19.018Z,11
2022-08-30T05:34:19.022Z,11.1
2022-08-30T05:40:10.923Z,11.1
2022-08-30T05:45:19.021Z,11.3
2022-08-30T05:51:08.734Z,11.2
2022-08-30T05:56:19.005Z,11.3
2022-08-30T06:02:08.886Z,11.2
2022-08-30T06:07:21.162Z,11.4
2022-08-30T06:13:08.759Z,11.3
2022-08-30T06:18:19.048Z,11.3
2022-08-30T06:24:08.754Z,11.4
2022-08-30T06:29:19.009Z,12.5
2022-08-30T06:35:08.747Z,12.5
2022-08-30T06:40:19.051Z,12.1
2022-08-30T06:45:19.031Z,12.1
2022-08-30T06:51:08.752Z,11.4
2022-08-30T06:56:08.758Z,11.6
2022-08-30T07:01:08.763Z,11.3
2022-08-30T07:06:08.805Z,11.3
2022-08-30T07:11:19.047Z,11.3
2022-08-30T07:17:08.747Z,11.2
2022-08-30T07:22:08.771Z,11.2
2022-08-30T07:27:19.032Z,11.2
2022-08-30T07:33:08.758Z,11.4
2022-08-30T07:38:19.038Z,11.4
2022-08-30T07:43:19.192Z,11.7
2022-08-30T07:49:10.832Z,12.1
2022-08-30T07:54:08.839Z,12.1
2022-08-30T07:59:19.050Z,12.1
2022-08-30T08:04:19.082Z,12.1
2022-08-30T08:10:08.769Z,11.7
2022-08-30T08:15:19.070Z,11.8
2022-08-30T08:21:19.075Z,12.1
2022-08-30T08:26:19.069Z,11.3
2022-08-30T08:31:19.137Z,11.8
2022-08-30T08:36:19.079Z,12.2
2022-08-30T08:41:19.109Z,11.5
2022-08-30T08:47:08.809Z,11.9
2022-08-30T08:52:19.071Z,11.5
2022-08-30T08:57:22.650Z,11.8
2022-08-30T09:02:19.080Z,11.6
2022-08-30T09:08:10.089Z,11
2022-08-30T09:13:19.562Z,11.5
2022-08-30T09:19:08.799Z,11.7
2022-08-30T09:24:08.831Z,11.9
2022-08-30T09:29:19.088Z,11
2022-08-30T09:34:19.084Z,11.4
2022-08-30T09:40:08.862Z,11
2022-08-30T09:45:08.829Z,10.7
2022-08-30T09:50:19.097Z,9.7
2022-08-30T09:55:19.109Z,9.7
2022-08-30T10:00:19.107Z,10.2
2022-08-30T10:06:08.821Z,9.8
2022-08-30T10:11:08.834Z,10.5
2022-08-30T10:16:08.844Z,9.9
2022-08-30T10:21:19.511Z,10.4
2022-08-30T10:26:19.358Z,10.2
2022-08-30T10:31:19.123Z,9.7
2022-08-30T10:37:08.817Z,10
2022-08-30T10:42:08.842Z,10.4
2022-08-30T10:47:23.082Z,10.8
2022-08-30T10:52:19.132Z,10.6
2022-08-30T10:58:08.888Z,10.6
2022-08-30T11:03:19.143Z,10.4
2022-08-30T11:09:08.873Z,10.3
2022-08-30T11:14:08.880Z,10.3
2022-08-30T11:19:19.144Z,10.5
2022-08-30T11:24:19.150Z,10
2022-08-30T11:30:08.854Z,10.9
2022-08-30T11:35:11.255Z,10.1
2022-08-30T11:45:08.888Z,10.5
2022-08-30T11:50:19.157Z,10.2
2022-08-30T11:56:08.854Z,10.6
2022-08-30T12:01:16.134Z,10.7
2022-08-30T12:06:19.145Z,10.2
2022-08-30T12:11:19.182Z,10
2022-08-30T12:17:08.873Z,10.2
2022-08-30T12:22:08.896Z,10.3
2022-08-30T12:27:19.165Z,10
2022-08-30T12:32:20.217Z,10.3
2022-08-30T12:38:08.910Z,10.2
2022-08-30T12:43:19.175Z,9.8
2022-08-30T12:49:08.937Z,9.9
2022-08-30T12:54:19.173Z,10.5
2022-08-30T12:59:19.210Z,10
2022-08-30T13:05:08.912Z,10.1
2022-08-30T13:10:08.936Z,10
2022-08-30T13:15:19.822Z,10.3
2022-08-30T13:21:08.916Z,10
2022-08-30T13:26:20.486Z,10.1
2022-08-30T13:32:15.963Z,10.2
2022-08-30T13:42:34.710Z,10.2
2022-08-30T13:48:08.958Z,10.4
2022-08-30T13:53:51.771Z,10.2
2022-08-30T13:58:19.512Z,10.3
2022-08-30T14:04:16.623Z,10
2022-08-30T14:09:09.522Z,10.2
2022-08-30T14:14:34.606Z,10.4
2022-08-30T14:19:19.250Z,10.4
2022-08-30T14:25:08.946Z,10.2
2022-08-30T14:30:08.942Z,10.3
2022-08-30T14:35:19.218Z,10.2
2022-08-30T14:41:08.964Z,10.3
2022-08-30T14:46:19.287Z,10.4
2022-08-30T14:52:08.982Z,10.4
2022-08-30T14:57:19.242Z,10.4
2022-08-30T15:03:08.963Z,10.5
2022-08-30T15:08:08.973Z,10.5
2022-08-30T15:13:19.257Z,10.6
2022-08-30T15:19:09.017Z,10.7
2022-08-30T15:24:09.042Z,10.5
2022-08-30T15:29:19.244Z,10.5
2022-08-30T15:34:19.251Z,10.5
2022-08-30T15:40:09.032Z,10.7
2022-08-30T15:45:08.946Z,10.5
2022-08-30T15:50:08.976Z,10.2
2022-08-30T15:55:19.254Z,10.3
2022-08-30T16:01:09.093Z,10.2
2022-08-30T16:06:19.246Z,10.2
2022-08-30T16:11:19.244Z,10.2
2022-08-30T16:16:19.371Z,10.3
2022-08-30T16:22:09.001Z,10.3
2022-08-30T16:27:19.264Z,10.6
2022-08-30T16:33:08.992Z,10.7
2022-08-30T16:38:08.994Z,10.6
2022-08-30T16:43:19.432Z,10.7
2022-08-30T16:48:19.269Z,10.6
2022-08-30T16:53:19.277Z,10.8
2022-08-30T16:59:11.320Z,10.7
2022-08-30T17:04:19.725Z,10.7
2022-08-30T17:10:09.004Z,10.8
2022-08-30T17:15:09.007Z,10.8
2022-08-30T17:20:19.293Z,10.8
2022-08-30T17:26:09.000Z,10.8
2022-08-30T17:31:09.373Z,10.8
2022-08-30T17:36:09.016Z,10.8
2022-08-30T17:41:19.292Z,10.9
2022-08-30T17:46:19.435Z,10.9
2022-08-30T17:52:08.987Z,10.9
2022-08-30T17:57:11.150Z,11.1
2022-08-30T18:02:11.274Z,11.1
2022-08-30T18:07:20.684Z,11
2022-08-30T18:12:19.360Z,11.1
2022-08-30T18:18:11.555Z,11
2022-08-30T18:23:09.053Z,11.1
2022-08-30T18:28:19.525Z,11.1
2022-08-30T18:34:12.484Z,11.1
2022-08-30T18:39:19.366Z,11.1
2022-08-30T18:44:27.731Z,11.1
2022-08-30T18:49:19.378Z,11.1
2022-08-30T18:55:09.042Z,11.2
2022-08-30T19:00:19.522Z,11.1
2022-08-30T19:05:19.458Z,11.1
2022-08-30T19:11:09.057Z,11.1
2022-08-30T19:16:19.431Z,11
2022-08-30T19:21:19.336Z,11
2022-08-30T19:26:19.551Z,10.9
2022-08-30T19:32:09.029Z,10.9
2022-08-30T19:37:09.045Z,10.9
2022-08-30T19:42:09.049Z,10.8
2022-08-30T19:47:09.074Z,10.9
2022-08-30T19:52:19.370Z,10.9
2022-08-30T19:57:19.360Z,10.9
2022-08-30T20:03:09.048Z,10.9
2022-08-30T20:08:09.057Z,10.9
2022-08-30T20:13:09.161Z,10.9
2022-08-30T20:18:19.352Z,10.9
2022-08-30T20:23:19.729Z,10.9
2022-08-30T20:28:19.394Z,10.9
2022-08-30T20:34:09.073Z,10.9
2022-08-30T20:39:19.350Z,11
2022-08-30T20:45:09.053Z,11
2022-08-30T20:50:09.081Z,11.1
2022-08-30T20:55:09.085Z,11.1
2022-08-30T21:00:19.614Z,11.1
2022-08-30T21:06:09.095Z,11.2
2022-08-30T21:11:19.351Z,11.2
2022-08-30T21:17:09.119Z,11.2
2022-08-30T21:22:09.101Z,11.2
2022-08-30T21:27:19.353Z,11.3
2022-08-30T21:32:19.368Z,11.3
2022-08-30T21:37:19.407Z,11.2
2022-08-30T21:43:09.070Z,11.3
2022-08-30T21:48:09.103Z,11.3
2022-08-30T21:53:09.114Z,11.3
2022-08-30T21:58:19.369Z,11.3
2022-08-30T22:03:26.314Z,11.3
2022-08-30T22:09:09.087Z,11.3
2022-08-30T22:14:09.369Z,11.3
2022-08-30T22:19:09.107Z,11.4
2022-08-30T22:24:19.395Z,11.3
2022-08-30T22:30:09.108Z,11.2
2022-08-30T22:35:09.115Z,11.3
2022-08-30T22:40:19.479Z,11.3
2022-08-30T22:46:09.148Z,11.3
2022-08-30T22:51:09.122Z,11.5
2022-08-30T22:56:09.121Z,11.4
2022-08-30T23:01:19.490Z,11.6
2022-08-30T23:07:09.110Z,11.5
2022-08-30T23:12:09.129Z,11.4
2022-08-30T23:17:19.505Z,11.5
2022-08-30T23:23:09.121Z,11.5
2022-08-30T23:28:20.737Z,11.5
2022-08-30T23:34:10.158Z,11.4
2022-08-30T23:39:09.102Z,11.5
2022-08-30T23:44:09.128Z,11.4
2022-08-30T23:49:19.409Z,11.6
2022-08-30T23:54:19.625Z,11.6
